Surface Preassure
0:00 UTC
12:00 UTC (Click for larger versions)
Andrewsfield Outlook

Current time:


  07:42:13am (GMT)      07:42:13am (UTC)


Headline: Rain this morning, some brighter periods developing this afternoon. Milder.

Today: Rain, persistent and locally heavy at first, especially over the hills. Turning brighter and drier in the east into the afternoon, further patchy light rain for western hills. Breezy but milder. Maximum Temperature 13C.

Tonight: Cloud will thicken again through the overnight period, bringing a further spell of persistent rain, mostly light but with the odd heavier burst mixed in. Staying mild. Minimum Temperature 8C.

Tuesday: Largely cloudy with further periods of rain over the hills, but to the east of the hills some drier, brighter spells developing. Very mild despite a strengthening breeze. Maximum Temperature 14C.

Outlook for Wednesday to Friday: Wednesday, windy but mild with further periods of rain, heavy across the hills. Becoming colder and showery through Thursday and Friday, with showers turning wintry later, still windy at times.

Forecast

Weather warnings

Nearby METAR/TAF

Stansted (EGSS)


Current conditions: MVFR

METAR: EGSS 200720Z 22012KT 6000 -RA SCT005 BKN020 08/08 Q1015 RERA

TAF: TAF AMD EGSS 200555Z 2006/2112 23008KT 9999 SCT014 OVC030 PROB30 TEMPO 2006/2009 4000 RA BKN004 BECMG 2008/2011 BKN007 PROB40 TEMPO 2008/2017 24016G26KT PROB40 TEMPO 2013/2022 BKN004 BECMG 2022/2101 BKN003 TEMPO 2022/2106 3000 DZ PROB30 TEMPO 2100/2107 0300 FG BKN001 BECMG 2107/2110 SCT015

Southend (EGMC)


Current conditions: MVFR

METAR: EGMC 200720Z 22008KT 7000 -RA FEW010 BKN020 08/06 Q1016

TAF: TAF EGMC 200502Z 2006/2015 24008KT 9999 SCT020 TEMPO 2006/2009 8000 -RA BKN014 PROB30 TEMPO 2006/2008 RA BKN007 PROB30 TEMPO 2008/2015 25016G26KT BECMG 2009/2011 BKN014

RAF Wattisham (EGUW)


Current conditions: LIFR

METAR: EGUW 200650Z 23009KT 3500 -DZ BKN003 07/06 Q1015 RERA YLO2

TAF: TAF EGUW 200720Z 2007/2015 22010KT 3000 -DZ BKN003 BECMG 2007/2010 24015G25KT 9999 NSW BKN005 PROB40 TEMPO 2010/2015 BKN007